createdAt,value
2023-07-03T00:02:16.146Z,81.37
2023-07-03T00:05:11.587Z,81.67
2023-07-03T00:08:05.416Z,82.21
2023-07-03T00:10:52.484Z,82.40
2023-07-03T00:13:25.578Z,82.41
2023-07-03T00:16:13.479Z,82.47
2023-07-03T00:19:47.035Z,82.16
2023-07-03T00:22:34.080Z,81.56
2023-07-03T00:25:07.207Z,81.34
2023-07-03T00:27:55.118Z,81.77
2023-07-03T00:30:28.183Z,81.98
2023-07-03T00:33:22.311Z,80.53
2023-07-03T00:36:17.985Z,79.81
2023-07-03T00:39:05.998Z,79.87
2023-07-03T00:41:40.214Z,80.56
2023-07-03T00:44:28.005Z,80.16
2023-07-03T00:47:01.143Z,80.85
2023-07-03T00:49:49.014Z,81.64
2023-07-03T00:52:23.468Z,82.28
2023-07-03T00:55:09.982Z,83.02
2023-07-03T00:57:44.159Z,83.50
2023-07-03T01:00:34.982Z,84.13
2023-07-03T01:03:43.074Z,84.71
2023-07-03T01:06:35.954Z,84.23
2023-07-03T01:09:10.080Z,84.25
2023-07-03T01:11:58.928Z,84.52
2023-07-03T01:14:35.042Z,84.90
2023-07-03T01:17:30.016Z,85.42
2023-07-03T01:20:29.932Z,85.95
2023-07-03T01:23:42.934Z,86.37
2023-07-03T01:26:19.047Z,86.31
2023-07-03T01:29:08.931Z,86.49
2023-07-03T01:31:45.064Z,86.85
2023-07-03T01:34:35.868Z,86.90
2023-07-03T01:37:11.004Z,87.04
2023-07-03T01:39:59.217Z,86.32
2023-07-03T01:42:39.865Z,85.51
2023-07-03T01:45:26.932Z,85.41
2023-07-03T01:48:01.022Z,85.27
2023-07-03T01:50:48.849Z,85.07
2023-07-03T01:53:33.939Z,84.89
2023-07-03T01:56:32.816Z,84.81
2023-07-03T01:59:31.497Z,85.06
2023-07-03T02:02:24.965Z,85.15
2023-07-03T02:05:07.265Z,85.28
2023-07-03T02:07:54.847Z,85.44
2023-07-03T02:10:28.992Z,85.84
2023-07-03T02:13:15.819Z,86.18
2023-07-03T02:15:50.192Z,85.75
2023-07-03T02:18:37.817Z,85.54
2023-07-03T02:21:17.872Z,85.46
2023-07-03T02:23:57.724Z,85.92
2023-07-03T02:26:38.935Z,86.28
2023-07-03T02:29:20.780Z,85.95
2023-07-03T02:32:00.905Z,85.55
2023-07-03T02:34:40.760Z,85.45
2023-07-03T02:37:21.595Z,85.19
2023-07-03T02:40:01.786Z,85.15
2023-07-03T02:42:42.924Z,84.76
2023-07-03T02:45:23.747Z,83.97
2023-07-03T02:48:03.950Z,83.25
2023-07-03T02:50:43.909Z,82.77
2023-07-03T02:53:23.826Z,83.24
2023-07-03T02:56:04.737Z,83.40
2023-07-03T02:58:46.047Z,83.39
2023-07-03T03:01:29.708Z,83.68
2023-07-03T03:04:09.839Z,83.84
2023-07-03T03:06:50.686Z,83.53
2023-07-03T03:09:30.776Z,82.80
2023-07-03T03:12:10.667Z,82.91
2023-07-03T03:14:51.235Z,82.24
2023-07-03T03:17:31.721Z,81.70
2023-07-03T03:20:15.176Z,81.91
2023-07-03T03:22:55.644Z,81.19
2023-07-03T03:25:35.838Z,80.83
2023-07-03T03:28:15.628Z,81.22
2023-07-03T03:30:55.759Z,81.20
2023-07-03T03:33:35.601Z,80.36
2023-07-03T03:36:15.740Z,80.24
2023-07-03T03:38:56.642Z,80.26
2023-07-03T03:41:36.690Z,79.92
2023-07-03T03:44:16.842Z,80.00
2023-07-03T03:46:59.667Z,80.02
2023-07-03T03:49:40.687Z,79.98
2023-07-03T03:52:20.730Z,80.92
2023-07-03T03:55:00.533Z,81.07
2023-07-03T03:57:40.713Z,80.90
2023-07-03T04:00:28.601Z,81.13
2023-07-03T04:03:08.679Z,80.56
2023-07-03T04:05:49.931Z,80.68
2023-07-03T04:08:30.623Z,79.23
2023-07-03T04:11:10.538Z,79.21
2023-07-03T04:13:50.642Z,78.32
2023-07-03T04:16:33.540Z,76.73
2023-07-03T04:19:27.472Z,76.59
2023-07-03T04:22:14.488Z,76.56
2023-07-03T04:24:47.575Z,76.05
2023-07-03T04:27:34.479Z,75.21
2023-07-03T04:30:17.089Z,74.23
2023-07-03T04:33:01.513Z,74.78
2023-07-03T04:35:44.603Z,74.97
2023-07-03T04:38:31.503Z,74.80
2023-07-03T04:41:11.575Z,75.62
2023-07-03T04:43:54.498Z,75.74
2023-07-03T04:46:36.222Z,76.14
2023-07-03T04:49:16.773Z,77.20
2023-07-03T04:51:56.655Z,77.16
2023-07-03T04:54:36.434Z,76.49
2023-07-03T04:57:16.518Z,77.17
2023-07-03T04:59:57.437Z,77.92
2023-07-03T05:02:37.504Z,77.36
2023-07-03T05:05:18.549Z,77.72
2023-07-03T05:07:59.171Z,77.90
2023-07-03T05:10:39.373Z,76.57
2023-07-03T05:13:19.571Z,75.52
2023-07-03T05:16:00.377Z,73.92
2023-07-03T05:18:54.314Z,73.66
2023-07-03T05:21:42.391Z,73.89
2023-07-03T05:24:16.523Z,74.03
2023-07-03T05:27:03.405Z,74.41
2023-07-03T05:29:39.425Z,74.85
2023-07-03T05:32:26.337Z,75.15
2023-07-03T05:35:07.540Z,75.89
2023-07-03T05:37:47.345Z,76.56
2023-07-03T05:40:31.159Z,76.20
2023-07-03T05:43:11.298Z,75.67
2023-07-03T05:45:52.282Z,75.41
2023-07-03T05:48:32.345Z,74.57
2023-07-03T05:51:14.037Z,74.69
2023-07-03T05:53:54.602Z,75.06
2023-07-03T05:56:35.419Z,74.96
2023-07-03T05:59:17.258Z,74.70
2023-07-03T06:01:57.832Z,75.05
2023-07-03T06:04:38.349Z,74.99
2023-07-03T06:07:19.382Z,76.26
2023-07-03T06:09:59.308Z,77.40
2023-07-03T06:12:39.411Z,77.74
2023-07-03T06:15:19.259Z,77.99
2023-07-03T06:18:13.220Z,77.87
2023-07-03T06:21:00.213Z,76.48
2023-07-03T06:23:33.313Z,76.47
2023-07-03T06:26:20.272Z,75.84
2023-07-03T06:28:54.050Z,75.66
2023-07-03T06:31:42.241Z,75.56
2023-07-03T06:34:16.282Z,75.06
2023-07-03T06:37:03.232Z,74.92
2023-07-03T06:39:46.250Z,75.24
2023-07-03T06:42:26.193Z,75.22
2023-07-03T06:45:07.269Z,74.97
2023-07-03T06:47:47.237Z,74.08
2023-07-03T06:50:27.882Z,72.45
2023-07-03T06:53:08.180Z,70.73
2023-07-03T06:55:48.411Z,70.39
2023-07-03T06:58:29.466Z,70.26
2023-07-03T07:01:20.344Z,70.27
2023-07-03T07:04:00.184Z,69.91
2023-07-03T07:06:40.196Z,70.86
2023-07-03T07:09:20.098Z,70.93
2023-07-03T07:12:00.246Z,70.82
2023-07-03T07:14:40.131Z,71.03
2023-07-03T07:17:20.207Z,71.99
2023-07-03T07:20:00.158Z,73.45
2023-07-03T07:22:40.283Z,76.61
2023-07-03T07:25:20.098Z,79.52
2023-07-03T07:28:00.142Z,82.26
2023-07-03T07:30:40.128Z,83.38
2023-07-03T07:33:22.173Z,83.65
2023-07-03T07:36:02.080Z,82.47
2023-07-03T07:38:42.177Z,83.08
2023-07-03T07:41:22.056Z,84.13
2023-07-03T07:44:03.128Z,83.67
2023-07-03T07:46:44.058Z,83.58
2023-07-03T07:49:24.167Z,83.29
2023-07-03T07:52:05.034Z,81.63
2023-07-03T07:54:45.080Z,79.99
2023-07-03T07:57:25.045Z,78.79
2023-07-03T08:00:05.335Z,78.48
2023-07-03T08:02:52.284Z,78.77
2023-07-03T08:05:32.612Z,78.37
2023-07-03T08:08:12.998Z,77.52
2023-07-03T08:11:02.068Z,75.61
2023-07-03T08:13:42.953Z,75.73
2023-07-03T08:16:23.197Z,76.16
2023-07-03T08:19:02.930Z,76.22
2023-07-03T08:21:43.025Z,74.94
2023-07-03T08:24:22.974Z,74.53
2023-07-03T08:27:03.031Z,74.43
2023-07-03T08:29:44.956Z,73.43
2023-07-03T08:32:25.106Z,72.96
2023-07-03T08:37:50.025Z,72.57
2023-07-03T08:40:30.945Z,72.02
2023-07-03T08:43:15.308Z,71.56
2023-07-03T08:45:56.918Z,71.28
2023-07-03T08:48:42.004Z,70.28
2023-07-03T08:51:26.928Z,70.29
2023-07-03T08:54:26.049Z,69.28
2023-07-03T08:57:08.899Z,69.13
2023-07-03T08:59:49.010Z,69.16
2023-07-03T09:02:51.992Z,68.89
2023-07-03T09:05:43.000Z,68.57
2023-07-03T09:08:33.872Z,69.12
2023-07-03T09:11:14.930Z,69.76
2023-07-03T09:13:58.825Z,70.09
2023-07-03T09:16:40.662Z,69.81
2023-07-03T09:19:38.829Z,69.89
2023-07-03T09:23:00.792Z,70.24
2023-07-03T09:25:51.507Z,70.38
2023-07-03T09:28:27.188Z,70.48
2023-07-03T09:31:14.856Z,71.10
2023-07-03T09:33:50.199Z,71.51
2023-07-03T09:36:45.801Z,71.71
2023-07-03T09:39:21.855Z,73.78
2023-07-03T09:42:15.721Z,74.10
2023-07-03T09:44:48.861Z,75.32
2023-07-03T09:47:36.887Z,78.53
2023-07-03T09:50:16.967Z,83.25
2023-07-03T09:53:08.467Z,85.77
2023-07-03T09:55:51.044Z,86.43
2023-07-03T09:58:34.748Z,87.16
2023-07-03T10:07:08.065Z,87.28
2023-07-03T10:12:47.857Z,85.96
2023-07-03T10:15:33.689Z,85.98
2023-07-03T10:18:49.615Z,85.31
2023-07-03T10:21:39.745Z,84.58
2023-07-03T10:24:14.503Z,84.00
2023-07-03T10:27:06.689Z,82.68
2023-07-03T10:29:47.560Z,81.11
2023-07-03T10:32:39.733Z,79.65
2023-07-03T10:35:36.769Z,77.42
2023-07-03T10:38:26.662Z,76.88
2023-07-03T10:41:09.784Z,74.98
2023-07-03T10:44:08.581Z,73.85
2023-07-03T10:46:49.200Z,72.23
2023-07-03T10:49:40.582Z,69.74
2023-07-03T10:52:38.730Z,68.35
2023-07-03T10:55:23.621Z,68.34
2023-07-03T10:58:09.727Z,68.94
2023-07-03T11:01:00.609Z,68.69
2023-07-03T11:04:15.809Z,68.89
2023-07-03T11:07:15.517Z,68.44
2023-07-03T11:10:33.690Z,68.05
2023-07-03T11:13:20.539Z,66.98
2023-07-03T11:16:23.793Z,69.42
2023-07-03T11:25:30.513Z,71.94
2023-07-03T11:28:34.602Z,72.15
2023-07-03T11:31:15.566Z,72.95
2023-07-03T11:36:51.291Z,72.36
2023-07-03T11:45:14.592Z,68.88
2023-07-03T11:47:54.504Z,68.69
2023-07-03T11:50:42.561Z,67.51
2023-07-03T11:53:40.447Z,66.35
2023-07-03T11:56:20.158Z,64.30
2023-07-03T11:59:10.492Z,64.20
2023-07-03T12:01:44.574Z,62.46
2023-07-03T12:04:53.427Z,60.98
2023-07-03T12:07:26.597Z,61.59
2023-07-03T12:10:25.438Z,61.45
2023-07-03T12:13:33.550Z,60.00
2023-07-03T12:16:20.781Z,59.92
2023-07-03T12:19:07.613Z,58.79
2023-07-03T12:21:58.385Z,58.29
2023-07-03T12:24:38.496Z,59.06
2023-07-03T12:27:18.406Z,59.05
2023-07-03T12:29:58.490Z,58.67
2023-07-03T12:32:41.373Z,58.75
2023-07-03T12:35:25.467Z,58.90
2023-07-03T12:38:12.383Z,57.95
2023-07-03T12:40:53.450Z,56.77
2023-07-03T12:43:33.370Z,55.92
2023-07-03T12:46:13.482Z,55.59
2023-07-03T12:48:53.361Z,55.95
2023-07-03T12:51:33.432Z,56.13
2023-07-03T12:54:18.304Z,55.09
2023-07-03T12:57:02.646Z,55.19
2023-07-03T12:59:43.349Z,54.49
2023-07-03T13:02:33.319Z,53.31
2023-07-03T13:05:19.749Z,53.27
2023-07-03T13:08:07.745Z,54.24
2023-07-03T13:10:48.250Z,53.36
2023-07-03T13:13:30.378Z,52.89
2023-07-03T13:16:20.333Z,52.71
2023-07-03T13:19:15.207Z,53.70
2023-07-03T13:22:02.310Z,54.11
2023-07-03T13:24:37.508Z,55.48
2023-07-03T13:27:33.195Z,56.20
2023-07-03T13:30:33.049Z,56.41
2023-07-03T13:33:32.240Z,56.36
2023-07-03T13:36:05.297Z,56.72
2023-07-03T13:38:52.198Z,56.65
2023-07-03T13:41:26.053Z,56.04
2023-07-03T13:44:16.198Z,55.68
2023-07-03T13:46:51.674Z,55.69
2023-07-03T13:49:38.212Z,56.31
2023-07-03T13:52:13.277Z,57.36
2023-07-03T13:55:00.226Z,58.14
2023-07-03T13:57:40.923Z,58.84
2023-07-03T14:00:22.808Z,59.74
2023-07-03T14:03:03.723Z,60.59
2023-07-03T14:05:44.168Z,60.93
2023-07-03T14:08:24.453Z,61.10
2023-07-03T14:11:04.141Z,60.79
2023-07-03T14:13:45.325Z,60.20
2023-07-03T14:16:26.101Z,60.22
2023-07-03T14:19:20.089Z,59.90
2023-07-03T14:22:07.412Z,59.08
2023-07-03T14:24:41.226Z,59.75
2023-07-03T14:27:28.114Z,60.68
2023-07-03T14:30:09.678Z,61.24
2023-07-03T14:32:55.989Z,61.70
2023-07-03T14:35:36.779Z,61.94
2023-07-03T14:38:17.060Z,62.36
2023-07-03T14:40:58.163Z,62.66
2023-07-03T14:43:38.090Z,62.76
2023-07-03T14:46:18.189Z,62.54
2023-07-03T14:48:58.116Z,60.56
2023-07-03T14:51:38.156Z,59.34
2023-07-03T14:54:18.111Z,57.11
2023-07-03T14:56:59.678Z,57.34
2023-07-03T14:59:40.032Z,56.41
2023-07-03T15:02:20.301Z,55.63
2023-07-03T15:04:59.989Z,55.38
2023-07-03T15:07:42.865Z,55.55
2023-07-03T15:10:23.046Z,55.52
2023-07-03T15:13:04.327Z,55.33
2023-07-03T15:15:43.939Z,54.55
2023-07-03T15:18:32.018Z,53.66
2023-07-03T15:21:25.987Z,53.26
2023-07-03T15:24:23.951Z,53.32
2023-07-03T15:27:13.134Z,53.24
2023-07-03T15:29:47.348Z,54.03
2023-07-03T15:32:33.999Z,53.00
2023-07-03T15:35:07.725Z,52.15
2023-07-03T15:37:55.067Z,52.95
2023-07-03T15:40:28.073Z,53.14
2023-07-03T15:43:14.965Z,53.58
2023-07-03T15:45:48.086Z,53.78
2023-07-03T15:48:37.859Z,54.63
2023-07-03T15:51:13.007Z,55.20
2023-07-03T15:54:00.922Z,55.67
2023-07-03T15:56:34.034Z,55.98
2023-07-03T15:59:20.885Z,56.66
2023-07-03T16:01:54.011Z,57.38
2023-07-03T16:04:42.064Z,58.16
2023-07-03T16:07:16.067Z,58.50
2023-07-03T16:10:02.902Z,59.21
2023-07-03T16:12:36.577Z,59.46
2023-07-03T16:15:23.885Z,59.44
2023-07-03T16:17:57.108Z,59.44
2023-07-03T16:20:50.840Z,59.76
2023-07-03T16:23:46.806Z,59.64
2023-07-03T16:26:34.814Z,58.86
2023-07-03T16:29:09.468Z,58.64
2023-07-03T16:31:57.151Z,58.34
2023-07-03T16:34:30.936Z,58.90
2023-07-03T16:37:17.748Z,59.92
2023-07-03T16:39:50.881Z,60.59
2023-07-03T16:42:37.818Z,60.85
2023-07-03T16:45:11.953Z,61.08
2023-07-03T16:47:58.863Z,61.60
2023-07-03T16:50:32.267Z,62.12
2023-07-03T16:53:18.758Z,62.32
2023-07-03T16:55:52.292Z,62.83
2023-07-03T16:58:40.771Z,63.99
2023-07-03T17:01:17.891Z,64.43
2023-07-03T17:04:05.781Z,64.30
2023-07-03T17:06:42.544Z,63.92
2023-07-03T17:09:29.696Z,64.16
2023-07-03T17:12:02.886Z,63.95
2023-07-03T17:14:49.695Z,63.67
2023-07-03T17:17:22.849Z,63.97
2023-07-03T17:20:16.738Z,64.18
2023-07-03T17:23:11.638Z,64.24
2023-07-03T17:26:00.643Z,64.41
2023-07-03T17:28:34.929Z,64.42
2023-07-03T17:31:21.787Z,64.68
2023-07-03T17:33:54.769Z,65.10
2023-07-03T17:36:41.915Z,65.12
2023-07-03T17:39:15.770Z,65.05
2023-07-03T17:42:02.657Z,65.29
2023-07-03T17:44:35.773Z,65.65
2023-07-03T17:47:22.651Z,65.62
2023-07-03T17:49:57.632Z,65.91
2023-07-03T17:52:44.644Z,65.99
2023-07-03T17:55:18.729Z,65.85
2023-07-03T17:58:07.900Z,65.86
2023-07-03T18:00:42.278Z,66.19
2023-07-03T18:03:30.861Z,66.52
2023-07-03T18:06:07.578Z,66.57
2023-07-03T18:08:54.637Z,66.90
2023-07-03T18:11:31.280Z,67.21
2023-07-03T18:14:18.602Z,67.58
2023-07-03T18:16:51.991Z,67.77
2023-07-03T18:19:45.607Z,67.86
2023-07-03T18:22:40.497Z,68.14
2023-07-03T18:25:27.552Z,68.47
2023-07-03T18:28:01.735Z,68.87
2023-07-03T18:30:48.602Z,69.18
2023-07-03T18:33:22.383Z,69.42
2023-07-03T18:36:10.553Z,69.87
2023-07-03T18:38:46.690Z,70.13
2023-07-03T18:41:35.824Z,70.28
2023-07-03T18:44:10.263Z,70.22
2023-07-03T18:46:57.520Z,70.31
2023-07-03T18:49:31.629Z,70.61
2023-07-03T18:52:18.518Z,70.62
2023-07-03T18:54:53.375Z,70.49
2023-07-03T18:57:42.081Z,70.67
2023-07-03T19:00:16.947Z,70.90
2023-07-03T19:03:04.537Z,70.78
2023-07-03T19:05:39.305Z,70.62
2023-07-03T19:08:26.519Z,70.56
2023-07-03T19:11:01.641Z,70.90
2023-07-03T19:13:48.526Z,71.05
2023-07-03T19:16:23.115Z,71.09
2023-07-03T19:19:17.425Z,71.22
2023-07-03T19:22:11.402Z,71.24
2023-07-03T19:24:59.341Z,71.86
2023-07-03T19:27:32.744Z,72.48
2023-07-03T19:30:20.462Z,72.58
2023-07-03T19:32:55.146Z,72.37
2023-07-03T19:35:44.442Z,72.45
2023-07-03T19:38:18.982Z,72.55
2023-07-03T19:41:05.400Z,73.03
2023-07-03T19:43:39.588Z,72.66
2023-07-03T19:46:29.758Z,72.18
2023-07-03T19:49:03.957Z,72.12
2023-07-03T19:51:51.347Z,72.61
2023-07-03T19:54:24.956Z,72.88
2023-07-03T19:57:16.720Z,72.57
2023-07-03T19:59:50.394Z,72.40
2023-07-03T20:02:39.357Z,72.36
2023-07-03T20:05:13.417Z,71.98
2023-07-03T20:08:00.339Z,72.12
2023-07-03T20:10:36.508Z,72.66
2023-07-03T20:13:23.345Z,72.80
2023-07-03T20:15:56.607Z,72.79
2023-07-03T20:18:43.258Z,73.18
2023-07-03T20:21:17.378Z,73.52
2023-07-03T20:24:05.318Z,73.79
2023-07-03T20:26:38.390Z,74.34
2023-07-03T20:29:25.281Z,74.52
2023-07-03T20:32:00.541Z,74.82
2023-07-03T20:34:47.282Z,75.11
2023-07-03T20:37:20.334Z,75.07
2023-07-03T20:40:07.184Z,75.49
2023-07-03T20:42:40.337Z,76.09
2023-07-03T20:45:28.315Z,76.12
2023-07-03T20:48:03.472Z,76.54
2023-07-03T20:50:58.483Z,76.65
2023-07-03T20:53:52.049Z,76.59
2023-07-03T20:56:44.216Z,76.61
2023-07-03T20:59:17.313Z,76.51
2023-07-03T21:02:04.218Z,76.43
2023-07-03T21:04:37.331Z,76.32
2023-07-03T21:07:24.140Z,76.40
2023-07-03T21:10:05.152Z,76.29
2023-07-03T21:12:52.205Z,76.25
2023-07-03T21:15:25.380Z,76.41
2023-07-03T21:18:12.191Z,76.88
2023-07-03T21:20:46.324Z,76.95
2023-07-03T21:23:34.182Z,77.18
2023-07-03T21:26:07.321Z,77.01
2023-07-03T21:28:55.173Z,77.22
2023-07-03T21:31:32.942Z,77.62
2023-07-03T21:34:20.108Z,77.56
2023-07-03T21:36:53.227Z,77.74
2023-07-03T21:39:40.151Z,77.74
2023-07-03T21:42:14.173Z,77.73
2023-07-03T21:45:01.087Z,77.90
2023-07-03T21:47:34.311Z,77.91
2023-07-03T21:50:21.116Z,78.05
2023-07-03T21:52:54.205Z,78.07
2023-07-03T21:55:41.016Z,78.15
2023-07-03T21:58:14.160Z,77.91
2023-07-03T22:01:01.025Z,77.78
2023-07-03T22:03:35.104Z,77.93
2023-07-03T22:06:21.996Z,77.81
2023-07-03T22:08:56.110Z,77.40
2023-07-03T22:11:42.967Z,77.64
2023-07-03T22:14:16.141Z,77.56
2023-07-03T22:17:03.052Z,77.67
2023-07-03T22:19:37.563Z,77.95
2023-07-03T22:22:27.208Z,78.24
2023-07-03T22:25:01.044Z,78.06
2023-07-03T22:27:47.945Z,77.40
2023-07-03T22:30:23.136Z,77.39
2023-07-03T22:33:09.945Z,77.51
2023-07-03T22:35:43.037Z,77.95
2023-07-03T22:38:29.982Z,78.01
2023-07-03T22:41:03.863Z,77.99
2023-07-03T22:43:52.976Z,77.88
2023-07-03T22:46:26.089Z,77.39
2023-07-03T22:49:24.380Z,77.13
2023-07-03T22:51:59.010Z,76.85
2023-07-03T22:54:47.983Z,76.79
2023-07-03T22:57:20.977Z,76.41
2023-07-03T23:00:07.904Z,76.29
2023-07-03T23:02:41.058Z,75.98
2023-07-03T23:05:27.918Z,75.87
2023-07-03T23:08:00.987Z,75.40
2023-07-03T23:10:57.875Z,75.45
2023-07-03T23:13:32.966Z,75.72
2023-07-03T23:16:20.084Z,76.27
2023-07-03T23:18:54.066Z,75.88
2023-07-03T23:21:47.823Z,75.14
2023-07-03T23:24:41.846Z,74.64
2023-07-03T23:27:31.845Z,75.34
2023-07-03T23:30:06.046Z,75.68
2023-07-03T23:32:52.874Z,76.05
2023-07-03T23:35:25.942Z,76.07
2023-07-03T23:38:12.802Z,76.47
2023-07-03T23:40:48.303Z,76.85
2023-07-03T23:43:34.852Z,77.24
2023-07-03T23:46:12.957Z,77.52
2023-07-03T23:48:59.748Z,77.41
2023-07-03T23:51:34.932Z,77.67
2023-07-03T23:54:21.840Z,78.16
2023-07-03T23:56:54.852Z,78.51
2023-07-03T23:59:42.006Z,78.36
